createdAt,value
2022-11-29T00:00:52.378Z,3.68
2022-11-29T00:03:19.910Z,3.69
2022-11-29T00:05:47.413Z,3.70
2022-11-29T00:08:16.221Z,3.67
2022-11-29T00:10:43.668Z,3.69
2022-11-29T00:13:11.144Z,3.74
2022-11-29T00:15:39.381Z,3.99
2022-11-29T00:18:08.313Z,4.08
2022-11-29T00:20:36.170Z,3.91
2022-11-29T00:23:03.667Z,3.79
2022-11-29T00:25:32.440Z,3.73
2022-11-29T00:27:59.899Z,3.74
2022-11-29T00:30:27.408Z,3.74
2022-11-29T00:32:54.882Z,3.72
2022-11-29T00:35:22.387Z,3.84
2022-11-29T00:37:49.883Z,3.97
2022-11-29T00:40:17.519Z,4.01
2022-11-29T00:42:46.315Z,4.00
2022-11-29T00:45:13.786Z,4.00
2022-11-29T00:47:41.243Z,3.95
2022-11-29T00:50:09.303Z,3.93
2022-11-29T00:52:36.733Z,3.90
2022-11-29T00:55:04.372Z,3.91
2022-11-29T00:57:31.811Z,3.88
2022-11-29T01:00:00.816Z,3.84
2022-11-29T01:02:28.346Z,3.81
2022-11-29T01:04:55.776Z,3.95
2022-11-29T01:07:23.257Z,3.96
2022-11-29T01:09:50.834Z,3.94
2022-11-29T01:12:18.297Z,4.06
2022-11-29T01:14:45.974Z,4.10
2022-11-29T01:17:15.397Z,4.08
2022-11-29T01:19:47.852Z,4.07
2022-11-29T01:22:18.484Z,4.12
2022-11-29T01:24:46.164Z,4.06
2022-11-29T01:27:13.793Z,4.11
2022-11-29T01:29:41.411Z,4.14
2022-11-29T01:32:08.953Z,4.16
2022-11-29T01:34:38.221Z,4.05
2022-11-29T01:37:05.794Z,4.09
2022-11-29T01:39:33.342Z,4.15
2022-11-29T01:42:02.150Z,4.13
2022-11-29T01:45:02.693Z,4.09
2022-11-29T01:47:31.005Z,4.04
2022-11-29T01:50:00.452Z,4.05
2022-11-29T01:52:30.895Z,4.01
2022-11-29T01:55:02.845Z,3.76
2022-11-29T01:57:32.044Z,4.04
2022-11-29T02:00:07.638Z,3.87
2022-11-29T02:02:39.369Z,4.09
2022-11-29T02:05:09.590Z,4.11
2022-11-29T02:07:38.266Z,4.10
2022-11-29T02:10:07.845Z,4.17
2022-11-29T02:12:45.421Z,4.09
2022-11-29T02:15:28.811Z,4.23
2022-11-29T02:18:22.263Z,4.27
2022-11-29T02:21:11.945Z,4.33
2022-11-29T02:24:05.012Z,4.50
2022-11-29T02:27:00.345Z,4.54
2022-11-29T02:30:02.212Z,4.51
2022-11-29T02:33:06.768Z,4.63
2022-11-29T02:35:53.318Z,4.62
2022-11-29T02:38:43.572Z,4.43
2022-11-29T02:41:26.225Z,4.54
2022-11-29T02:44:19.407Z,4.52
2022-11-29T02:46:57.035Z,4.51
2022-11-29T02:49:42.580Z,4.57
2022-11-29T02:52:17.716Z,4.54
2022-11-29T02:54:49.385Z,4.54
2022-11-29T02:57:24.584Z,4.50
2022-11-29T03:00:01.031Z,4.44
2022-11-29T03:02:35.969Z,4.39
2022-11-29T03:05:13.560Z,4.33
2022-11-29T03:07:47.364Z,4.19
2022-11-29T03:10:24.366Z,4.19
2022-11-29T03:12:54.615Z,4.29
2022-11-29T03:15:29.809Z,4.33
2022-11-29T03:18:17.480Z,4.34
2022-11-29T03:21:05.045Z,4.31
2022-11-29T03:23:38.615Z,4.34
2022-11-29T03:26:09.575Z,4.29
2022-11-29T03:28:40.907Z,4.36
2022-11-29T03:31:16.325Z,4.38
2022-11-29T03:33:50.602Z,4.42
2022-11-29T03:36:30.502Z,4.44
2022-11-29T03:39:04.418Z,4.51
2022-11-29T03:41:36.138Z,4.63
2022-11-29T03:44:13.017Z,4.65
2022-11-29T03:46:48.814Z,4.76
2022-11-29T03:49:22.684Z,4.75
2022-11-29T03:52:01.563Z,4.79
2022-11-29T03:54:36.493Z,4.78
2022-11-29T03:57:04.477Z,4.78
2022-11-29T03:59:46.249Z,4.78
2022-11-29T04:02:52.375Z,4.82
2022-11-29T04:05:58.299Z,4.82
2022-11-29T04:08:49.357Z,4.76
2022-11-29T04:11:54.664Z,4.74
2022-11-29T04:14:38.958Z,4.71
2022-11-29T04:17:30.377Z,4.72
2022-11-29T04:20:11.284Z,4.80
2022-11-29T04:23:09.734Z,4.75
2022-11-29T04:26:27.765Z,4.74
2022-11-29T04:29:17.873Z,4.75
2022-11-29T04:32:03.115Z,4.66
2022-11-29T04:34:51.132Z,4.73
2022-11-29T04:37:39.324Z,4.67
2022-11-29T04:40:30.043Z,4.69
2022-11-29T04:43:22.128Z,4.68
2022-11-29T04:46:40.111Z,4.67
2022-11-29T04:49:24.360Z,4.64
2022-11-29T04:52:10.367Z,4.63
2022-11-29T04:54:46.084Z,4.71
2022-11-29T04:57:23.644Z,4.72
2022-11-29T04:59:58.742Z,4.69
2022-11-29T05:02:35.765Z,4.67
2022-11-29T05:05:14.859Z,4.65
2022-11-29T05:07:49.036Z,4.67
2022-11-29T05:10:26.141Z,4.63
2022-11-29T05:13:00.491Z,4.68
2022-11-29T05:15:53.087Z,4.71
2022-11-29T05:18:28.906Z,4.67
2022-11-29T05:21:06.045Z,4.70
2022-11-29T05:23:49.311Z,4.67
2022-11-29T05:26:23.630Z,4.68
2022-11-29T05:28:59.498Z,4.69
2022-11-29T05:31:46.533Z,4.69
2022-11-29T05:34:37.134Z,4.88
2022-11-29T05:37:16.195Z,4.87
2022-11-29T05:39:58.259Z,4.77
2022-11-29T05:42:39.388Z,4.90
2022-11-29T05:45:15.342Z,4.83
2022-11-29T05:47:51.054Z,4.86
2022-11-29T05:50:24.506Z,4.81
2022-11-29T05:52:58.716Z,4.84
2022-11-29T05:55:40.767Z,4.81
2022-11-29T05:58:17.477Z,4.89
2022-11-29T06:00:51.077Z,4.85
2022-11-29T06:03:30.896Z,4.83
2022-11-29T06:06:02.639Z,4.76
2022-11-29T06:08:37.802Z,4.79
2022-11-29T06:11:14.134Z,4.81
2022-11-29T06:13:52.225Z,4.81
2022-11-29T06:16:43.580Z,4.78
2022-11-29T06:19:42.236Z,4.76
2022-11-29T06:22:25.530Z,4.76
2022-11-29T06:25:03.598Z,4.70
2022-11-29T06:27:45.702Z,4.60
2022-11-29T06:30:15.925Z,4.60
2022-11-29T06:32:51.466Z,4.60
2022-11-29T06:35:43.810Z,4.68
2022-11-29T06:38:18.098Z,4.70
2022-11-29T06:40:46.179Z,4.66
2022-11-29T06:43:14.326Z,4.61
2022-11-29T06:45:49.826Z,4.64
2022-11-29T06:48:22.891Z,4.61
2022-11-29T06:50:59.145Z,4.62
2022-11-29T06:53:37.214Z,4.70
2022-11-29T06:56:13.717Z,4.74
2022-11-29T06:58:50.923Z,4.82
2022-11-29T07:01:29.961Z,4.88
2022-11-29T07:04:12.706Z,4.89
2022-11-29T07:06:42.114Z,5.00
2022-11-29T07:09:14.241Z,4.95
2022-11-29T07:11:42.944Z,4.81
2022-11-29T07:14:11.161Z,4.78
2022-11-29T07:16:47.921Z,4.89
2022-11-29T07:19:25.788Z,4.84
2022-11-29T07:22:02.380Z,4.84
2022-11-29T07:24:42.977Z,4.80
2022-11-29T07:27:19.705Z,4.74
2022-11-29T07:30:03.557Z,4.61
2022-11-29T07:32:48.841Z,4.70
2022-11-29T07:35:25.035Z,4.76
2022-11-29T07:38:03.450Z,4.56
2022-11-29T07:40:37.779Z,4.73
2022-11-29T07:43:20.418Z,4.68
2022-11-29T07:45:47.947Z,4.64
2022-11-29T07:48:17.917Z,4.52
2022-11-29T07:50:45.831Z,4.48
2022-11-29T07:53:17.272Z,4.51
2022-11-29T07:55:45.205Z,4.46
2022-11-29T07:58:13.650Z,4.49
2022-11-29T08:00:41.854Z,4.51
2022-11-29T08:03:10.146Z,4.57
2022-11-29T08:05:38.005Z,4.59
2022-11-29T08:08:05.783Z,4.61
2022-11-29T08:10:35.420Z,4.80
2022-11-29T08:13:02.881Z,4.70
2022-11-29T08:15:30.442Z,4.83
2022-11-29T08:17:57.901Z,4.77
2022-11-29T08:20:25.383Z,4.78
2022-11-29T08:22:57.120Z,4.84
2022-11-29T08:25:25.016Z,4.93
2022-11-29T08:27:54.457Z,4.96
2022-11-29T08:30:23.162Z,4.99
2022-11-29T08:32:51.795Z,4.99
2022-11-29T08:35:21.065Z,5.00
2022-11-29T08:37:48.955Z,5.03
2022-11-29T08:40:17.542Z,5.07
2022-11-29T08:42:45.055Z,4.82
2022-11-29T08:45:14.071Z,5.13
2022-11-29T08:47:42.300Z,5.10
2022-11-29T08:50:12.316Z,5.12
2022-11-29T08:52:59.630Z,5.16
2022-11-29T08:55:31.575Z,5.21
2022-11-29T08:58:02.855Z,5.15
2022-11-29T09:00:31.971Z,5.26
2022-11-29T09:03:19.983Z,5.11
2022-11-29T09:05:47.455Z,5.18
2022-11-29T09:08:15.626Z,5.18
2022-11-29T09:10:43.746Z,5.21
2022-11-29T09:13:11.754Z,5.18
2022-11-29T09:15:43.414Z,5.26
2022-11-29T09:18:11.291Z,5.09
2022-11-29T09:20:38.738Z,5.14
2022-11-29T09:23:06.212Z,5.06
2022-11-29T09:25:33.670Z,5.19
2022-11-29T09:28:02.967Z,5.35
2022-11-29T09:30:31.340Z,5.39
2022-11-29T09:33:02.479Z,5.25
2022-11-29T09:35:30.085Z,5.40
2022-11-29T09:37:57.494Z,5.49
2022-11-29T09:40:32.404Z,5.47
2022-11-29T09:43:07.275Z,5.60
2022-11-29T09:45:39.352Z,5.56
2022-11-29T09:48:27.214Z,5.55
2022-11-29T09:51:00.609Z,5.67
2022-11-29T09:53:44.954Z,5.80
2022-11-29T09:56:19.314Z,5.68
2022-11-29T09:58:50.776Z,5.70
2022-11-29T10:01:22.939Z,5.73
2022-11-29T10:03:55.250Z,5.89
2022-11-29T10:06:26.587Z,5.91
2022-11-29T10:09:01.430Z,6.06
2022-11-29T10:11:34.029Z,6.13
2022-11-29T10:14:09.106Z,5.78
2022-11-29T10:16:44.134Z,6.03
2022-11-29T10:19:20.506Z,5.97
2022-11-29T10:21:57.102Z,5.83
2022-11-29T10:24:27.859Z,5.97
2022-11-29T10:26:55.355Z,5.95
2022-11-29T10:29:24.153Z,6.01
2022-11-29T10:31:54.944Z,5.97
2022-11-29T10:34:26.314Z,5.95
2022-11-29T10:36:59.323Z,5.97
2022-11-29T10:39:34.630Z,5.89
2022-11-29T10:42:04.915Z,6.06
2022-11-29T10:44:34.085Z,6.22
2022-11-29T10:47:07.822Z,6.19
2022-11-29T10:49:40.600Z,6.39
2022-11-29T10:52:18.953Z,6.41
2022-11-29T10:54:48.373Z,6.33
2022-11-29T10:57:18.307Z,6.52
2022-11-29T11:00:00.393Z,6.54
2022-11-29T11:02:28.620Z,6.60
2022-11-29T11:04:57.689Z,6.56
2022-11-29T11:07:28.233Z,6.23
2022-11-29T11:09:58.011Z,6.50
2022-11-29T11:12:28.090Z,6.45
2022-11-29T11:15:15.938Z,6.50
2022-11-29T11:17:58.405Z,6.51
2022-11-29T11:20:30.036Z,6.70
2022-11-29T11:23:00.165Z,6.76
2022-11-29T11:25:30.758Z,6.83
2022-11-29T11:27:59.157Z,6.69
2022-11-29T11:30:29.454Z,6.69
2022-11-29T11:33:18.979Z,6.66
2022-11-29T11:36:02.498Z,6.75
2022-11-29T11:38:30.622Z,6.73
2022-11-29T11:41:20.275Z,6.75
2022-11-29T11:43:57.363Z,6.65
2022-11-29T11:46:45.042Z,6.53
2022-11-29T11:49:13.580Z,6.51
2022-11-29T11:51:44.906Z,6.52
2022-11-29T11:54:15.588Z,6.52
2022-11-29T11:56:43.485Z,6.60
2022-11-29T11:59:19.360Z,6.64
2022-11-29T12:01:47.127Z,6.61
2022-11-29T12:04:18.644Z,6.59
2022-11-29T12:06:51.548Z,6.68
2022-11-29T12:09:28.139Z,6.52
2022-11-29T12:12:04.140Z,6.66
2022-11-29T12:14:41.322Z,6.35
2022-11-29T12:17:19.918Z,6.43
2022-11-29T12:19:58.867Z,6.35
2022-11-29T12:22:34.993Z,6.39
2022-11-29T12:25:07.060Z,6.35
2022-11-29T12:27:34.591Z,6.39
2022-11-29T12:30:02.135Z,6.37
2022-11-29T12:32:48.441Z,6.36
2022-11-29T12:35:39.107Z,6.42
2022-11-29T12:38:20.816Z,6.56
2022-11-29T12:40:53.817Z,6.60
2022-11-29T12:43:32.547Z,6.53
2022-11-29T12:46:08.496Z,6.57
2022-11-29T12:48:48.803Z,6.69
2022-11-29T12:51:26.783Z,6.72
2022-11-29T12:54:22.486Z,6.66
2022-11-29T12:56:59.186Z,6.65
2022-11-29T12:59:41.774Z,6.67
2022-11-29T13:02:25.185Z,6.72
2022-11-29T13:05:00.628Z,6.63
2022-11-29T13:07:43.459Z,6.66
2022-11-29T13:10:35.467Z,6.69
2022-11-29T13:13:12.620Z,6.66
2022-11-29T13:15:45.695Z,6.74
2022-11-29T13:18:22.360Z,6.75
2022-11-29T13:20:58.771Z,6.78
2022-11-29T13:23:45.836Z,6.79
2022-11-29T13:26:23.783Z,6.58
2022-11-29T13:28:51.827Z,6.76
2022-11-29T13:31:21.270Z,6.81
2022-11-29T13:33:57.759Z,6.61
2022-11-29T13:36:35.035Z,6.51
2022-11-29T13:39:12.245Z,6.62
2022-11-29T13:41:49.972Z,6.70
2022-11-29T13:44:23.741Z,6.47
2022-11-29T13:47:03.146Z,6.57
2022-11-29T13:49:55.901Z,6.72
2022-11-29T13:52:38.839Z,6.66
2022-11-29T13:55:18.253Z,6.50
2022-11-29T14:00:50.954Z,6.57
2022-11-29T14:03:32.470Z,6.52
2022-11-29T14:06:11.750Z,6.56
2022-11-29T14:09:10.728Z,6.65
2022-11-29T14:11:33.710Z,6.55
2022-11-29T14:14:07.770Z,6.53
2022-11-29T14:16:39.139Z,6.56
2022-11-29T14:19:21.087Z,6.50
2022-11-29T14:22:31.289Z,6.59
2022-11-29T14:25:43.358Z,6.44
2022-11-29T14:28:29.497Z,6.19
2022-11-29T14:31:01.369Z,6.36
2022-11-29T14:33:43.760Z,6.26
2022-11-29T14:36:39.352Z,6.21
2022-11-29T14:39:25.158Z,6.14
2022-11-29T14:42:02.171Z,6.03
2022-11-29T14:44:31.957Z,6.18
2022-11-29T14:47:07.460Z,6.20
2022-11-29T14:49:41.234Z,6.18
2022-11-29T14:52:17.287Z,6.07
2022-11-29T14:55:09.663Z,6.00
2022-11-29T14:58:06.083Z,6.03
2022-11-29T15:00:43.870Z,5.98
2022-11-29T15:03:19.631Z,6.04
2022-11-29T15:05:51.715Z,6.00
2022-11-29T15:08:33.565Z,5.94
2022-11-29T15:11:05.559Z,5.95
2022-11-29T15:13:34.697Z,5.96
2022-11-29T15:16:21.762Z,5.79
2022-11-29T15:19:07.967Z,5.71
2022-11-29T15:21:43.479Z,5.69
2022-11-29T15:24:13.268Z,5.67
2022-11-29T15:26:55.837Z,5.61
2022-11-29T15:29:23.769Z,5.57
2022-11-29T15:31:54.546Z,5.44
2022-11-29T15:34:32.137Z,5.43
2022-11-29T15:36:59.732Z,5.44
2022-11-29T15:39:32.671Z,5.34
2022-11-29T15:42:04.953Z,5.30
2022-11-29T15:44:35.434Z,5.26
2022-11-29T15:47:16.927Z,5.24
2022-11-29T15:49:45.691Z,5.22
2022-11-29T15:52:20.647Z,5.27
2022-11-29T15:54:52.100Z,5.28
2022-11-29T15:57:25.702Z,5.28
2022-11-29T15:59:56.227Z,5.27
2022-11-29T16:02:27.598Z,5.29
2022-11-29T16:05:02.314Z,5.24
2022-11-29T16:07:32.186Z,5.25
2022-11-29T16:10:04.195Z,5.25
2022-11-29T16:12:31.666Z,5.27
2022-11-29T16:15:01.576Z,5.23
2022-11-29T16:17:31.412Z,5.22
2022-11-29T16:20:23.381Z,5.23
2022-11-29T16:23:05.158Z,5.24
2022-11-29T16:25:37.622Z,5.26
2022-11-29T16:28:05.866Z,5.27
2022-11-29T16:30:33.673Z,5.39
2022-11-29T16:33:03.306Z,5.33
2022-11-29T16:35:33.655Z,5.26
2022-11-29T16:38:04.936Z,5.23
2022-11-29T16:40:34.359Z,5.25
2022-11-29T16:43:20.229Z,5.19
2022-11-29T16:45:47.761Z,5.32
2022-11-29T16:48:29.351Z,5.27
2022-11-29T16:51:24.669Z,5.32
2022-11-29T16:53:53.421Z,5.27
2022-11-29T16:56:23.559Z,5.19
2022-11-29T16:59:20.710Z,5.19
2022-11-29T17:01:41.961Z,5.10
2022-11-29T17:04:09.770Z,5.14
2022-11-29T17:06:38.851Z,5.22
2022-11-29T17:09:06.557Z,5.25
2022-11-29T17:11:34.544Z,5.29
2022-11-29T17:14:01.992Z,5.11
2022-11-29T17:16:29.459Z,5.05
2022-11-29T17:18:56.918Z,5.01
2022-11-29T17:21:26.101Z,4.91
2022-11-29T17:23:55.174Z,4.99
2022-11-29T17:26:25.158Z,4.98
2022-11-29T17:28:53.058Z,4.89
2022-11-29T17:31:22.424Z,4.89
2022-11-29T17:33:50.039Z,4.86
2022-11-29T17:36:20.399Z,4.89
2022-11-29T17:38:48.734Z,4.90
2022-11-29T17:41:20.782Z,4.97
2022-11-29T17:43:48.238Z,4.96
2022-11-29T17:46:18.575Z,4.89
2022-11-29T17:48:46.325Z,4.83
2022-11-29T17:51:43.548Z,4.72
2022-11-29T17:54:04.214Z,4.72
2022-11-29T17:56:33.792Z,4.65
2022-11-29T17:59:03.178Z,4.60
2022-11-29T18:01:33.077Z,4.53
2022-11-29T18:04:02.618Z,4.61
2022-11-29T18:06:31.820Z,4.66
2022-11-29T18:09:00.482Z,4.64
2022-11-29T18:11:29.956Z,4.68
2022-11-29T18:13:59.395Z,4.65
2022-11-29T18:16:29.118Z,4.63
2022-11-29T18:18:58.093Z,4.67
2022-11-29T18:21:26.306Z,4.71
2022-11-29T18:23:54.189Z,4.68
2022-11-29T18:26:23.795Z,4.62
2022-11-29T18:28:51.594Z,4.59
2022-11-29T18:31:21.884Z,4.60
2022-11-29T18:33:51.030Z,4.62
2022-11-29T18:36:21.085Z,4.65
2022-11-29T18:38:49.259Z,4.55
2022-11-29T18:41:18.999Z,4.54
2022-11-29T18:43:47.051Z,4.52
2022-11-29T18:46:16.202Z,4.39
2022-11-29T18:48:46.277Z,4.41
2022-11-29T18:51:16.186Z,4.37
2022-11-29T18:53:44.470Z,4.42
2022-11-29T18:56:15.518Z,4.39
2022-11-29T18:58:44.003Z,4.34
2022-11-29T19:01:13.201Z,4.28
2022-11-29T19:03:43.396Z,4.17
2022-11-29T19:06:13.743Z,4.26
2022-11-29T19:08:41.775Z,4.30
2022-11-29T19:11:10.351Z,4.15
2022-11-29T19:13:38.471Z,4.11
2022-11-29T19:16:08.423Z,4.09
2022-11-29T19:18:36.289Z,4.05
2022-11-29T19:21:05.138Z,3.98
2022-11-29T19:23:34.043Z,4.01
2022-11-29T19:26:05.182Z,4.11
2022-11-29T19:28:32.862Z,4.20
2022-11-29T19:31:00.368Z,4.17
2022-11-29T19:33:27.858Z,4.26
2022-11-29T19:35:55.277Z,4.30
2022-11-29T19:38:22.680Z,4.26
2022-11-29T19:40:51.454Z,4.41
2022-11-29T19:43:18.885Z,4.31
2022-11-29T19:45:46.423Z,4.39
2022-11-29T19:48:14.096Z,4.34
2022-11-29T19:50:41.516Z,4.37
2022-11-29T19:53:10.186Z,4.45
2022-11-29T19:55:43.716Z,4.37
2022-11-29T19:58:12.929Z,4.23
2022-11-29T20:00:40.363Z,4.23
2022-11-29T20:03:07.836Z,4.19
2022-11-29T20:05:35.321Z,4.24
2022-11-29T20:08:02.803Z,4.20
2022-11-29T20:10:30.407Z,4.24
2022-11-29T20:12:57.817Z,4.19
2022-11-29T20:15:26.736Z,4.16
2022-11-29T20:17:54.204Z,4.14
2022-11-29T20:20:21.852Z,4.11
2022-11-29T20:22:49.362Z,4.16
2022-11-29T20:25:16.904Z,4.09
2022-11-29T20:27:44.304Z,4.18
2022-11-29T20:30:13.038Z,4.13
2022-11-29T20:32:42.198Z,4.09
2022-11-29T20:35:10.810Z,4.09
2022-11-29T20:38:00.486Z,4.10
2022-11-29T20:40:36.516Z,4.05
2022-11-29T20:43:14.585Z,4.04
2022-11-29T20:45:42.574Z,4.04
2022-11-29T20:48:18.636Z,3.81
2022-11-29T20:50:53.075Z,3.95
2022-11-29T20:53:32.743Z,3.99
2022-11-29T20:56:00.301Z,3.93
2022-11-29T20:58:27.783Z,3.97
2022-11-29T21:00:55.764Z,3.88
2022-11-29T21:03:25.444Z,3.87
2022-11-29T21:05:54.380Z,3.74
2022-11-29T21:08:22.868Z,3.87
2022-11-29T21:10:51.173Z,3.83
2022-11-29T21:13:20.152Z,3.92
2022-11-29T21:15:48.423Z,3.94
2022-11-29T21:18:23.036Z,3.82
2022-11-29T21:21:03.282Z,3.83
2022-11-29T21:23:39.026Z,3.90
2022-11-29T21:26:11.475Z,3.92
2022-11-29T21:28:45.035Z,3.92
2022-11-29T21:31:13.399Z,3.92
2022-11-29T21:33:41.393Z,4.09
2022-11-29T21:36:11.927Z,4.03
2022-11-29T21:38:39.486Z,4.00
2022-11-29T21:41:07.079Z,3.93
2022-11-29T21:44:04.303Z,4.01
2022-11-29T21:46:22.077Z,4.10
2022-11-29T21:48:51.378Z,4.02
2022-11-29T21:51:20.494Z,4.05
2022-11-29T21:53:48.081Z,3.98
2022-11-29T21:56:15.609Z,3.93
2022-11-29T21:58:43.117Z,3.91
2022-11-29T22:01:13.218Z,4.03
2022-11-29T22:03:41.976Z,4.01
2022-11-29T22:06:11.318Z,4.00
2022-11-29T22:08:42.235Z,3.95
2022-11-29T22:11:11.380Z,3.92
2022-11-29T22:14:00.746Z,3.97
2022-11-29T22:16:28.951Z,4.00
2022-11-29T22:18:56.533Z,4.00
2022-11-29T22:21:24.099Z,3.95
2022-11-29T22:23:54.016Z,3.82
2022-11-29T22:26:21.439Z,3.86
2022-11-29T22:28:48.921Z,3.82
2022-11-29T22:31:16.434Z,3.97
2022-11-29T22:33:43.997Z,3.95
2022-11-29T22:36:13.567Z,3.90
2022-11-29T22:38:41.352Z,3.82
2022-11-29T22:41:12.619Z,3.85
2022-11-29T22:43:43.557Z,3.67
2022-11-29T22:46:13.382Z,3.76
2022-11-29T22:48:42.143Z,3.76
2022-11-29T22:51:11.490Z,3.83
2022-11-29T22:53:40.833Z,3.79
2022-11-29T22:56:11.665Z,3.76
2022-11-29T22:58:39.238Z,3.77
2022-11-29T23:01:09.349Z,3.79
2022-11-29T23:03:37.567Z,3.67
2022-11-29T23:06:07.112Z,3.79
2022-11-29T23:08:34.879Z,3.73
2022-11-29T23:11:04.726Z,3.69
2022-11-29T23:13:35.158Z,3.69
2022-11-29T23:16:03.920Z,3.60
2022-11-29T23:18:31.808Z,3.46
2022-11-29T23:21:02.446Z,3.63
2022-11-29T23:23:29.986Z,3.73
2022-11-29T23:25:57.661Z,3.72
2022-11-29T23:28:25.750Z,3.72
2022-11-29T23:30:54.641Z,3.69
2022-11-29T23:33:23.182Z,3.76
2022-11-29T23:35:50.953Z,3.67
2022-11-29T23:38:19.062Z,3.54
2022-11-29T23:40:46.477Z,3.82
2022-11-29T23:43:13.894Z,3.79
2022-11-29T23:45:41.859Z,3.84
2022-11-29T23:48:10.671Z,3.70
2022-11-29T23:50:38.115Z,3.76
2022-11-29T23:53:05.935Z,3.78
2022-11-29T23:55:33.381Z,3.79
2022-11-29T23:58:01.520Z,3.84
